Time;durP1;ratioP1;P1;durP2;ratioP2;P2;SDS_P1;SDS_P2;PMS_P1;PMS_P2;Temp;Humidity;BMP_temperature;BMP_pressure;BME280_temperature;BME280_humidity;BME280_pressure;Samples;Min_cycle;Max_cycle;Signal;HPM_P1;HPM_P2
2022/04/11 04:18:40;;;;;;;;;;;;;;;6.69;55.51;98741.09;4882765;24;19978;-69
2022/04/11 04:21:10;;;;;;;;;;;;;;;6.76;48.95;98744.03;4811385;29;19960;-70
2022/04/11 04:23:40;;;;;;;;;;;;;;;6.89;48.58;98744.72;4793858;29;19972;-70
2022/04/11 04:26:08;;;;;;;;;;;;;;;6.87;52.26;98744.28;4799280;29;19956;-70
2022/04/11 04:28:35;;;;;;;;;;;;;;;6.86;51.58;98754.59;4810022;29;19951;-69
2022/04/11 04:31:02;;;;;;;;;;;;;;;6.86;51.05;98759.34;4794482;29;20223;-70
2022/04/11 04:33:32;;;;;;;;;;;;;;;6.95;48.70;98763.53;4793756;29;20032;-70
2022/04/11 04:36:03;;;;;;;;;;;;;;;6.96;50.60;98761.56;4808988;29;19953;-70
2022/04/11 04:38:30;;;;;;;;;;;;;;;7.00;48.87;98763.25;4793547;29;19958;-70
2022/04/11 04:40:58;;;;;;;;;;;;;;;7.02;48.71;98763.69;4793548;29;19956;-70
2022/04/11 04:43:26;;;;;;;;;;;;;;;7.02;50.67;98766.47;4808791;29;19980;-70
2022/04/11 04:45:53;;;;;;;;;;;;;;;6.99;49.36;98769.19;4813484;29;19963;-70
2022/04/11 04:48:53;;;;;;;;;;;;;;;6.99;50.19;98769.97;4801500;29;20348;-70
2022/04/11 04:51:23;;;;;;;;;;;;;;;7.01;49.74;98770.44;4802567;29;19960;-70
2022/04/11 04:53:58;;;;;;;;;;;;;;;7.02;50.40;98769.25;4794085;29;19957;-69
2022/04/11 04:56:31;;;;;;;;;;;;;;;7.13;50.15;98772.28;4793902;29;19963;-70
2022/04/11 04:59:02;;;;;;;;;;;;;;;7.15;51.32;98769.94;4794417;29;20244;-70
2022/04/11 05:01:30;;;;;;;;;;;;;;;7.16;51.19;98768.78;4795057;29;19958;-70
2022/04/11 05:03:58;;;;;;;;;;;;;;;7.23;49.40;98768.94;4818633;29;19970;-70
2022/04/11 05:06:30;;;;;;;;;;;;;;;7.35;48.88;98766.00;4801954;29;20361;-70
2022/04/11 05:08:58;;;;;;;;;;;;;;;7.67;46.86;98769.44;4793567;29;19958;-70
2022/04/11 05:11:27;;;;;;;;;;;;;;;8.34;44.79;98774.31;4794750;29;19967;-69
2022/04/11 05:13:54;;;;;;;;;;;;;;;9.16;43.38;98780.03;4793749;29;20551;-70
2022/04/11 05:16:23;;;;;;;;;;;;;;;9.88;41.92;98788.94;4801929;29;19954;-70
2022/04/11 05:18:52;;;;;;;;;;;;;;;10.60;39.26;98796.09;4795657;29;19954;-70
2022/04/11 05:21:20;;;;;;;;;;;;;;;11.34;38.23;98797.47;4802714;29;20254;-70
2022/04/11 05:23:48;;;;;;;;;;;;;;;12.02;38.22;98796.63;4793784;29;19976;-69
2022/04/11 05:26:18;;;;;;;;;;;;;;;12.98;36.48;98794.75;4795668;29;19962;-69
2022/04/11 05:28:48;;;;;;;;;;;;;;;13.89;33.63;98798.59;4799141;29;19962;-69
2022/04/11 05:31:17;;;;;;;;;;;;;;;14.74;32.76;98802.56;4799905;29;20341;-70
2022/04/11 05:33:44;;;;;;;;;;;;;;;15.78;30.00;98809.63;4817119;29;19951;-70
2022/04/11 05:36:15;;;;;;;;;;;;;;;17.40;27.90;98810.09;4804581;29;19959;-70
2022/04/11 05:38:43;;;;;;;;;;;;;;;19.13;25.66;98816.97;4795994;29;19967;-70
2022/04/11 05:41:12;;;;;;;;;;;;;;;20.07;25.28;98815.72;4793178;29;19964;-70
2022/04/11 05:43:47;;;;;;;;;;;;;;;21.60;24.00;98822.66;4800344;29;19978;-70
2022/04/11 05:46:16;;;;;;;;;;;;;;;22.45;22.77;98821.63;4808837;29;19956;-71
2022/04/11 05:48:50;;;;;;;;;;;;;;;23.56;21.54;98826.13;4794944;29;20260;-70
2022/04/11 05:51:18;;;;;;;;;;;;;;;24.70;20.82;98840.56;4805947;29;19952;-70
2022/04/11 05:53:46;;;;;;;;;;;;;;;26.14;20.16;98834.63;4803150;29;19967;-70
2022/04/11 05:56:14;;;;;;;;;;;;;;;26.45;19.70;98840.75;4807594;29;19959;-69
2022/04/11 05:58:41;;;;;;;;;;;;;;;27.10;18.16;98850.25;4808632;29;20623;-69
2022/04/11 06:01:10;;;;;;;;;;;;;;;27.26;18.08;98850.56;4803422;29;19976;-69
2022/04/11 06:03:38;;;;;;;;;;;;;;;28.29;18.27;98859.66;4795331;29;19969;-69
2022/04/11 06:06:07;;;;;;;;;;;;;;;29.45;17.62;98856.34;4794372;29;20278;-69
2022/04/11 06:08:36;;;;;;;;;;;;;;;30.22;16.54;98867.59;4797655;29;20278;-69
2022/04/11 06:11:03;;;;;;;;;;;;;;;31.09;15.25;98868.38;4806632;29;19961;-69
2022/04/11 06:13:31;;;;;;;;;;;;;;;31.50;15.62;98875.22;4796216;29;19963;-69
2022/04/11 06:16:01;;;;;;;;;;;;;;;32.45;15.12;98879.47;4799582;29;19959;-69
2022/04/11 06:18:29;;;;;;;;;;;;;;;33.05;14.32;98880.50;4793172;29;19978;-69
2022/04/11 06:21:28;;;;;;;;;;;;;;;33.66;14.31;98887.94;4823796;29;19954;-69
2022/04/11 06:23:56;;;;;;;;;;;;;;;33.33;14.23;98888.97;4811415;29;20283;-69
2022/04/11 06:26:26;;;;;;;;;;;;;;;32.53;14.20;98885.53;4809180;29;19976;-69
2022/04/11 06:28:55;;;;;;;;;;;;;;;29.75;15.39;98889.31;4798571;29;19966;-69
2022/04/11 06:31:22;;;;;;;;;;;;;;;28.09;16.78;98881.84;4792365;29;19962;-70
2022/04/11 06:33:55;;;;;;;;;;;;;;;26.39;18.07;98884.91;4791796;29;19955;-70
2022/04/11 06:36:25;;;;;;;;;;;;;;;24.55;19.89;98876.03;4791712;29;19962;-70
2022/04/11 06:38:54;;;;;;;;;;;;;;;23.40;22.14;98872.84;4791531;29;20415;-70
2022/04/11 06:41:25;;;;;;;;;;;;;;;22.60;23.59;98869.06;4791521;29;19955;-70
2022/04/11 06:43:55;;;;;;;;;;;;;;;21.74;23.29;98869.72;4806977;29;20340;-70
2022/04/11 06:46:37;;;;;;;;;;;;;;;20.98;23.31;98880.34;4791365;29;20401;-70
2022/04/11 06:49:04;;;;;;;;;;;;;;;20.59;24.08;98877.94;4807024;29;19951;-70
2022/04/11 06:51:33;;;;;;;;;;;;;;;20.16;24.74;98879.13;4791945;29;19956;-70
2022/04/11 06:54:01;;;;;;;;;;;;;;;20.13;24.18;98876.34;4806919;29;19967;-70
2022/04/11 06:56:28;;;;;;;;;;;;;;;19.51;26.04;98875.56;4819736;29;19963;-70
2022/04/11 06:58:55;;;;;;;;;;;;;;;19.28;26.29;98872.09;4828973;29;20325;-70
2022/04/11 07:01:23;;;;;;;;;;;;;;;18.88;25.57;98868.56;4832547;29;19959;-70
2022/04/11 07:03:51;;;;;;;;;;;;;;;18.90;25.91;98869.75;4825294;29;19969;-70
2022/04/11 07:06:18;;;;;;;;;;;;;;;19.00;25.76;98877.19;4839729;29;19960;-70
2022/04/11 07:08:46;;;;;;;;;;;;;;;18.69;26.80;98869.44;4826836;29;19962;-70
2022/04/11 07:11:13;;;;;;;;;;;;;;;18.08;27.24;98874.72;4840153;29;19971;-70
2022/04/11 07:13:40;;;;;;;;;;;;;;;18.01;26.77;98877.69;4846622;29;19950;-70
2022/04/11 07:16:07;;;;;;;;;;;;;;;17.89;28.13;98879.13;4847878;29;19966;-70
2022/04/11 07:18:35;;;;;;;;;;;;;;;17.85;28.50;98874.78;4846803;29;19977;-70
2022/04/11 07:21:03;;;;;;;;;;;;;;;17.57;28.57;98873.25;4847274;29;19958;-70
2022/04/11 07:23:30;;;;;;;;;;;;;;;17.64;28.84;98879.59;4847557;29;19968;-70
2022/04/11 07:25:57;;;;;;;;;;;;;;;17.60;29.88;98876.03;4847265;29;19964;-70
2022/04/11 07:28:25;;;;;;;;;;;;;;;17.69;28.17;98875.47;4846727;29;19962;-70
2022/04/11 07:30:53;;;;;;;;;;;;;;;17.16;29.45;98879.16;4838163;29;19985;-70
2022/04/11 07:33:21;;;;;;;;;;;;;;;17.38;28.01;98873.97;4829456;29;20521;-70
2022/04/11 07:35:48;;;;;;;;;;;;;;;17.28;28.73;98874.94;4826935;29;19958;-70
2022/04/11 07:38:15;;;;;;;;;;;;;;;17.16;29.62;98873.53;4812735;29;19985;-70
2022/04/11 07:40:46;;;;;;;;;;;;;;;17.18;30.09;98879.53;4826664;29;19966;-70
2022/04/11 07:43:14;;;;;;;;;;;;;;;17.28;32.62;98880.59;4815180;29;19965;-69
2022/04/11 07:45:42;;;;;;;;;;;;;;;16.85;30.35;98886.88;4816427;29;19959;-70
2022/04/11 07:48:10;;;;;;;;;;;;;;;16.85;29.91;98880.44;4812857;29;19986;-71
2022/04/11 07:50:37;;;;;;;;;;;;;;;16.92;28.77;98886.00;4817920;29;19965;-70
2022/04/11 07:53:04;;;;;;;;;;;;;;;17.09;28.52;98880.06;4822391;29;19960;-70
2022/04/11 07:55:33;;;;;;;;;;;;;;;17.24;28.41;98880.63;4820162;29;20256;-70
2022/04/11 07:58:01;;;;;;;;;;;;;;;17.35;28.79;98872.78;4828011;29;19958;-70
2022/04/11 08:00:28;;;;;;;;;;;;;;;16.81;31.99;98874.84;4827436;29;19958;-70
2022/04/11 08:02:56;;;;;;;;;;;;;;;16.71;30.62;98872.16;4828089;29;19988;-70
2022/04/11 08:05:24;;;;;;;;;;;;;;;16.90;29.19;98866.63;4827680;29;19982;-70
2022/04/11 08:07:52;;;;;;;;;;;;;;;17.08;31.49;98872.03;4827441;29;19970;-70
2022/04/11 08:10:21;;;;;;;;;;;;;;;17.33;30.35;98872.44;4844190;29;19980;-70
2022/04/11 08:12:59;;;;;;;;;;;;;;;17.12;27.05;98874.81;4813359;29;19951;-70
2022/04/11 08:15:27;;;;;;;;;;;;;;;17.11;25.74;98879.66;4810706;29;19957;-70
2022/04/11 08:17:55;;;;;;;;;;;;;;;17.29;27.88;98874.50;4809565;29;20247;-69
2022/04/11 08:20:23;;;;;;;;;;;;;;;17.29;28.16;98874.50;4810831;29;19957;-70
2022/04/11 08:22:50;;;;;;;;;;;;;;;17.02;29.23;98868.06;4812267;29;20006;-70
2022/04/11 08:25:18;;;;;;;;;;;;;;;16.60;29.75;98872.34;4820042;29;19974;-70
2022/04/11 08:27:47;;;;;;;;;;;;;;;16.61;30.31;98870.28;4805584;29;19958;-70
2022/04/11 08:30:14;;;;;;;;;;;;;;;16.63;33.84;98870.69;4831854;29;19964;-70
2022/04/11 08:32:46;;;;;;;;;;;;;;;15.62;34.35;98860.16;4827612;29;20352;-70
2022/04/11 08:35:14;;;;;;;;;;;;;;;15.53;36.87;98866.28;4823219;29;19952;-70
2022/04/11 08:37:41;;;;;;;;;;;;;;;15.24;35.13;98867.72;4817625;29;20254;-70
2022/04/11 08:40:16;;;;;;;;;;;;;;;15.02;39.97;98864.28;4814417;29;19956;-70
2022/04/11 08:42:44;;;;;;;;;;;;;;;14.92;37.18;98872.78;4825702;29;19951;-69
2022/04/11 08:45:13;;;;;;;;;;;;;;;14.90;39.35;98872.41;4823877;29;19980;-69
2022/04/11 08:47:41;;;;;;;;;;;;;;;14.64;37.88;98873.00;4822175;29;20004;-70
2022/04/11 08:50:10;;;;;;;;;;;;;;;15.01;40.30;98878.78;4826644;29;19957;-69
2022/04/11 08:52:38;;;;;;;;;;;;;;;14.79;40.33;98874.50;4838337;29;19962;-69
2022/04/11 08:55:05;;;;;;;;;;;;;;;15.08;36.50;98873.09;4828177;29;21321;-69
2022/04/11 08:57:35;;;;;;;;;;;;;;;15.36;39.50;98884.13;4814365;29;20272;-69
2022/04/11 09:00:09;;;;;;;;;;;;;;;14.58;40.46;98883.06;4823369;29;19955;-70
2022/04/11 09:02:37;;;;;;;;;;;;;;;14.60;41.03;98886.28;4824747;29;20337;-70
2022/04/11 09:05:05;;;;;;;;;;;;;;;14.46;42.17;98876.69;4816437;29;19974;-70
2022/04/11 09:07:52;;;;;;;;;;;;;;;14.63;39.92;98871.38;4812066;29;19949;-70
2022/04/11 09:10:23;;;;;;;;;;;;;;;14.92;40.34;98869.97;4823820;29;19955;-70
2022/04/11 09:12:52;;;;;;;;;;;;;;;14.91;40.05;98872.03;4821106;29;19958;-70
2022/04/11 09:15:23;;;;;;;;;;;;;;;14.91;37.15;98872.03;4809665;29;19957;-70
2022/04/11 09:17:52;;;;;;;;;;;;;;;15.14;39.00;98866.59;4824339;29;19978;-70
2022/04/11 09:20:25;;;;;;;;;;;;;;;15.47;38.69;98875.63;4813471;29;20041;-70
2022/04/11 09:22:52;;;;;;;;;;;;;;;15.19;39.04;98885.06;4818117;29;19962;-70
2022/04/11 09:25:21;;;;;;;;;;;;;;;15.32;39.69;98888.19;4794492;29;20002;-70
2022/04/11 09:28:02;;;;;;;;;;;;;;;15.29;38.16;98881.38;4833591;29;19957;-70
2022/04/11 09:30:31;;;;;;;;;;;;;;;14.81;39.61;98881.34;4826332;29;19955;-69
2022/04/11 09:33:00;;;;;;;;;;;;;;;14.89;39.10;98879.28;4826354;29;19965;-69
2022/04/11 09:35:38;;;;;;;;;;;;;;;15.00;39.50;98874.34;4820788;29;19959;-70
2022/04/11 09:38:15;;;;;;;;;;;;;;;15.01;38.96;98870.34;4817788;29;20378;-70
2022/04/11 09:40:50;;;;;;;;;;;;;;;15.13;41.13;98873.47;4809185;29;19953;-70
2022/04/11 09:43:23;;;;;;;;;;;;;;;15.24;42.64;98879.00;4815861;29;19964;-70
2022/04/11 09:45:51;;;;;;;;;;;;;;;15.26;42.16;98882.19;4810820;29;19977;-70
2022/04/11 09:48:21;;;;;;;;;;;;;;;15.50;37.99;98884.03;4826996;29;19956;-70
2022/04/11 09:50:49;;;;;;;;;;;;;;;15.32;38.30;98880.53;4826517;29;19958;-70
2022/04/11 09:53:17;;;;;;;;;;;;;;;14.97;38.88;98875.16;4819057;29;19957;-70
2022/04/11 09:55:46;;;;;;;;;;;;;;;15.32;38.34;98871.28;4809010;29;19954;-69
2022/04/11 09:58:14;;;;;;;;;;;;;;;15.55;40.66;98874.34;4808312;29;19953;-70
2022/04/11 10:00:42;;;;;;;;;;;;;;;15.71;41.14;98871.75;4840388;29;19967;-70
2022/04/11 10:03:10;;;;;;;;;;;;;;;15.11;37.62;98866.63;4844527;29;19954;-69
2022/04/11 10:05:39;;;;;;;;;;;;;;;15.03;40.13;98865.88;4844655;29;19970;-69
2022/04/11 10:08:07;;;;;;;;;;;;;;;15.11;38.86;98870.22;4844070;29;19958;-69
2022/04/11 10:10:38;;;;;;;;;;;;;;;15.06;36.69;98867.06;4844641;29;19984;-69
2022/04/11 10:13:11;;;;;;;;;;;;;;;15.43;40.60;98869.19;4844380;29;19981;-69
2022/04/11 10:15:39;;;;;;;;;;;;;;;15.23;37.43;98873.78;4844485;29;19955;-69
2022/04/11 10:18:08;;;;;;;;;;;;;;;15.59;38.20;98869.47;4812573;29;19984;-70
2022/04/11 10:20:36;;;;;;;;;;;;;;;15.57;38.34;98869.88;4818379;29;19958;-69
2022/04/11 10:23:13;;;;;;;;;;;;;;;15.68;37.93;98866.94;4813430;29;19962;-69
2022/04/11 10:25:45;;;;;;;;;;;;;;;15.40;36.58;98859.53;4800467;29;19976;-69
2022/04/11 10:28:15;;;;;;;;;;;;;;;15.56;41.87;98861.81;4813412;29;20257;-69
2022/04/11 10:30:43;;;;;;;;;;;;;;;15.47;39.09;98853.06;4823170;29;19955;-69
2022/04/11 10:33:11;;;;;;;;;;;;;;;15.63;39.65;98856.94;4814799;29;19957;-69
2022/04/11 10:35:45;;;;;;;;;;;;;;;15.47;38.67;98858.69;4818149;29;19984;-69
2022/04/11 10:38:13;;;;;;;;;;;;;;;15.04;40.57;98858.22;4809671;29;20276;-69
2022/04/11 10:40:47;;;;;;;;;;;;;;;15.05;38.58;98845.75;4812931;29;20361;-69
2022/04/11 10:43:25;;;;;;;;;;;;;;;15.22;43.40;98847.63;4809819;29;19950;-69
2022/04/11 10:45:57;;;;;;;;;;;;;;;15.46;43.25;98846.63;4812993;29;19971;-69
2022/04/11 10:48:43;;;;;;;;;;;;;;;15.68;44.57;98847.19;4818246;29;19964;-69
2022/04/11 10:51:16;;;;;;;;;;;;;;;15.97;41.32;98840.03;4807752;29;19962;-69
2022/04/11 10:54:04;;;;;;;;;;;;;;;16.05;36.43;98843.56;4818477;29;19972;-69
2022/04/11 10:56:49;;;;;;;;;;;;;;;15.50;36.92;98852.25;4817377;29;19955;-69
2022/04/11 10:59:24;;;;;;;;;;;;;;;15.46;36.70;98845.81;4813487;29;19958;-70
2022/04/11 11:01:56;;;;;;;;;;;;;;;15.48;39.24;98832.13;4821336;29;19963;-70
2022/04/11 11:04:26;;;;;;;;;;;;;;;15.75;39.06;98833.84;4817841;29;19955;-69
2022/04/11 11:07:12;;;;;;;;;;;;;;;15.86;41.25;98835.75;4822186;29;19956;-69
2022/04/11 11:09:40;;;;;;;;;;;;;;;15.76;42.48;98837.47;4811055;29;20289;-69
2022/04/11 11:12:19;;;;;;;;;;;;;;;15.82;39.47;98830.13;4807887;29;19957;-69
2022/04/11 11:14:47;;;;;;;;;;;;;;;15.81;37.32;98839.03;4807048;29;19955;-69
2022/04/11 11:17:14;;;;;;;;;;;;;;;15.88;37.81;98836.13;4813825;29;19974;-70
2022/04/11 11:20:00;;;;;;;;;;;;;;;15.99;40.14;98834.00;4812609;29;19959;-70
2022/04/11 11:22:31;;;;;;;;;;;;;;;16.13;40.33;98834.63;4809375;29;19953;-70
2022/04/11 11:25:17;;;;;;;;;;;;;;;16.24;38.99;98823.16;4815060;29;20608;-70
2022/04/11 11:27:45;;;;;;;;;;;;;;;16.29;38.31;98817.88;4817687;29;19970;-70
2022/04/11 11:30:13;;;;;;;;;;;;;;;16.33;38.57;98824.25;4817503;29;19959;-70
2022/04/11 11:32:41;;;;;;;;;;;;;;;16.34;38.08;98828.69;4818522;29;20466;-70
2022/04/11 11:35:09;;;;;;;;;;;;;;;16.11;37.23;98820.13;4816732;29;20263;-69
2022/04/11 11:37:36;;;;;;;;;;;;;;;16.21;40.68;98824.03;4811002;29;19961;-69
2022/04/11 11:40:04;;;;;;;;;;;;;;;16.41;40.94;98813.66;4812184;29;19956;-69
2022/04/11 11:42:35;;;;;;;;;;;;;;;16.52;43.66;98811.53;4816882;29;19958;-70
2022/04/11 11:45:03;;;;;;;;;;;;;;;16.56;41.01;98811.47;4815229;29;20243;-70
2022/04/11 11:47:30;;;;;;;;;;;;;;;16.13;42.09;98817.69;4812618;29;19951;-70
2022/04/11 11:50:03;;;;;;;;;;;;;;;16.28;43.95;98815.47;4814751;29;20037;-70
2022/04/11 11:52:30;;;;;;;;;;;;;;;16.43;41.39;98814.84;4813679;29;19963;-70
2022/04/11 11:54:58;;;;;;;;;;;;;;;16.11;39.80;98814.50;4812988;29;19961;-70
2022/04/11 11:57:30;;;;;;;;;;;;;;;16.36;36.45;98817.75;4812941;29;19950;-70
2022/04/11 11:59:59;;;;;;;;;;;;;;;16.32;41.21;98810.56;4819354;29;19954;-70
2022/04/11 12:05:24;;;;;;;;;;;;;;;16.13;38.31;98809.22;4818673;29;19976;-70
2022/04/11 12:08:13;;;;;;;;;;;;;;;16.14;38.65;98804.38;4816805;29;19961;-70
2022/04/11 12:10:41;;;;;;;;;;;;;;;16.26;36.83;98801.00;4804462;29;19958;-70
2022/04/11 12:13:09;;;;;;;;;;;;;;;16.11;38.92;98797.56;4816233;29;19986;-70
2022/04/11 12:15:36;;;;;;;;;;;;;;;16.15;38.67;98795.47;4813101;29;19994;-70
2022/04/11 12:18:07;;;;;;;;;;;;;;;16.27;37.74;98794.13;4814984;29;19982;-70
2022/04/11 12:20:35;;;;;;;;;;;;;;;16.18;36.69;98791.81;4818707;29;19957;-70
2022/04/11 12:23:13;;;;;;;;;;;;;;;15.61;36.80;98794.53;4818568;29;19954;-71
2022/04/11 12:25:50;;;;;;;;;;;;;;;15.90;38.68;98795.00;4815509;29;19970;-70
2022/04/11 12:28:21;;;;;;;;;;;;;;;15.98;43.09;98796.50;4817461;29;19963;-70
2022/04/11 12:31:05;;;;;;;;;;;;;;;16.08;41.05;98783.50;4818843;29;19959;-70
2022/04/11 12:33:34;;;;;;;;;;;;;;;16.06;39.76;98788.75;4810784;29;19955;-70
2022/04/11 12:36:04;;;;;;;;;;;;;;;16.02;38.43;98788.78;4809258;29;20542;-70
2022/04/11 12:38:38;;;;;;;;;;;;;;;15.92;39.33;98792.53;4816475;29;19963;-70
2022/04/11 12:41:05;;;;;;;;;;;;;;;15.95;37.52;98783.25;4827688;29;19953;-70
2022/04/11 12:43:32;;;;;;;;;;;;;;;16.00;40.88;98779.97;4827844;29;19955;-70
2022/04/11 12:46:06;;;;;;;;;;;;;;;16.09;38.25;98782.28;4816441;29;19975;-70
2022/04/11 12:48:52;;;;;;;;;;;;;;;16.02;36.43;98777.50;4820653;29;19955;-70
2022/04/11 12:51:19;;;;;;;;;;;;;;;15.74;39.35;98769.41;4816304;29;19988;-69
2022/04/11 12:53:47;;;;;;;;;;;;;;;15.77;38.76;98760.91;4810008;29;19964;-70
2022/04/11 12:56:14;;;;;;;;;;;;;;;15.76;38.45;98770.59;4810937;29;19961;-70
2022/04/11 12:58:41;;;;;;;;;;;;;;;15.73;39.23;98770.63;4825190;29;20256;-70
2022/04/11 13:01:09;;;;;;;;;;;;;;;15.73;41.16;98760.16;4818532;29;19962;-70
2022/04/11 13:03:36;;;;;;;;;;;;;;;15.93;42.17;98765.94;4827689;29;19962;-70
2022/04/11 13:06:05;;;;;;;;;;;;;;;16.09;40.38;98765.34;4830060;29;19972;-70
2022/04/11 13:08:32;;;;;;;;;;;;;;;16.17;39.67;98766.84;4811492;29;19956;-70
2022/04/11 13:11:00;;;;;;;;;;;;;;;16.12;40.06;98768.09;4810139;29;19959;-70
2022/04/11 13:13:27;;;;;;;;;;;;;;;16.08;37.63;98763.75;4818018;29;19954;-70
2022/04/11 13:18:40;;;;;;;;;;;;;;;16.08;38.35;98755.28;4813560;29;19982;-69
2022/04/11 13:21:07;;;;;;;;;;;;;;;16.17;41.06;98747.88;4817921;29;19955;-69
2022/04/11 13:23:35;;;;;;;;;;;;;;;16.24;39.25;98744.97;4816403;29;19965;-69
2022/04/11 13:26:03;;;;;;;;;;;;;;;16.29;40.40;98744.50;4816574;29;19978;-69
2022/04/11 13:28:30;;;;;;;;;;;;;;;16.28;37.99;98744.94;4817076;29;19966;-69
2022/04/11 13:30:58;;;;;;;;;;;;;;;16.42;40.95;98742.69;4817019;29;19956;-69
2022/04/11 13:33:26;;;;;;;;;;;;;;;16.11;39.85;98734.69;4826763;29;20412;-69
2022/04/11 13:35:53;;;;;;;;;;;;;;;16.23;38.12;98728.47;4822335;29;20380;-69
2022/04/11 13:38:20;;;;;;;;;;;;;;;16.30;39.76;98726.34;4812782;29;19959;-69
2022/04/11 13:40:48;;;;;;;;;;;;;;;16.14;38.68;98722.56;4809843;29;19965;-70
2022/04/11 13:43:15;;;;;;;;;;;;;;;16.28;39.73;98719.53;4817203;29;19958;-70
2022/04/11 13:45:43;;;;;;;;;;;;;;;16.26;38.98;98719.94;4812186;29;19963;-70
2022/04/11 13:48:10;;;;;;;;;;;;;;;16.31;40.98;98713.81;4808410;29;20383;-70
2022/04/11 13:50:38;;;;;;;;;;;;;;;16.42;39.15;98719.31;4808960;29;19960;-70
2022/04/11 13:53:06;;;;;;;;;;;;;;;16.12;38.91;98711.69;4808494;29;19952;-70
2022/04/11 13:55:33;;;;;;;;;;;;;;;16.22;42.01;98710.72;4808906;29;19950;-70
2022/04/11 13:58:00;;;;;;;;;;;;;;;16.24;39.42;98713.13;4807723;29;19959;-70
2022/04/11 14:00:27;;;;;;;;;;;;;;;16.37;42.00;98709.31;4810413;29;19963;-69
2022/04/11 14:02:55;;;;;;;;;;;;;;;16.45;41.32;98710.00;4808353;29;19963;-70
2022/04/11 14:05:22;;;;;;;;;;;;;;;16.39;39.04;98708.84;4808401;29;19964;-70
2022/04/11 14:07:49;;;;;;;;;;;;;;;16.27;39.78;98704.59;4807946;29;20001;-70
2022/04/11 14:10:18;;;;;;;;;;;;;;;16.19;40.49;98703.09;4808469;29;19970;-70
2022/04/11 14:12:45;;;;;;;;;;;;;;;16.23;41.67;98703.06;4807781;29;19973;-70
2022/04/11 14:15:12;;;;;;;;;;;;;;;16.14;40.82;98700.00;4813802;29;19961;-69
2022/04/11 14:17:40;;;;;;;;;;;;;;;16.19;40.16;98693.84;4808333;29;19975;-69
2022/04/11 14:20:08;;;;;;;;;;;;;;;16.23;40.75;98686.13;4808210;29;19955;-72
2022/04/11 14:22:36;;;;;;;;;;;;;;;16.34;40.95;98681.13;4807930;29;19968;-70
2022/04/11 14:25:03;;;;;;;;;;;;;;;16.33;40.79;98676.72;4814170;29;19960;-69
2022/04/11 14:27:39;;;;;;;;;;;;;;;16.23;42.68;98669.22;4819948;29;19979;-70
2022/04/11 14:30:12;;;;;;;;;;;;;;;16.20;41.44;98667.22;4821151;29;19968;-70
2022/04/11 14:32:40;;;;;;;;;;;;;;;16.34;43.29;98670.63;4808569;29;19958;-70
2022/04/11 14:35:08;;;;;;;;;;;;;;;16.15;40.68;98674.16;4825279;29;19971;-70
2022/04/11 14:37:35;;;;;;;;;;;;;;;16.13;41.75;98664.53;4824087;29;19956;-70
2022/04/11 14:40:02;;;;;;;;;;;;;;;16.00;40.57;98660.69;4823187;29;20247;-70
2022/04/11 14:42:30;;;;;;;;;;;;;;;16.03;41.12;98660.63;4816860;29;19958;-69
2022/04/11 14:44:57;;;;;;;;;;;;;;;16.17;41.04;98662.44;4799102;29;19962;-71
2022/04/11 14:47:25;;;;;;;;;;;;;;;16.16;42.14;98656.00;4817757;29;19967;-71
2022/04/11 14:49:52;;;;;;;;;;;;;;;16.22;39.10;98657.13;4815722;29;19958;-72
2022/04/11 14:52:21;;;;;;;;;;;;;;;16.01;40.43;98656.66;4825097;29;20425;-71
2022/04/11 14:54:51;;;;;;;;;;;;;;;15.91;41.25;98660.41;4825117;29;20237;-72
2022/04/11 14:57:18;;;;;;;;;;;;;;;15.74;40.91;98659.44;4807155;29;19958;-73
2022/04/11 14:59:46;;;;;;;;;;;;;;;15.94;40.62;98646.28;4807854;29;19961;-73
2022/04/11 15:02:14;;;;;;;;;;;;;;;15.84;41.35;98650.03;4807492;29;19951;-73
2022/04/11 15:04:42;;;;;;;;;;;;;;;15.74;41.23;98646.16;4807346;29;19972;-73
2022/04/11 15:07:09;;;;;;;;;;;;;;;15.95;42.79;98639.41;4811624;29;19976;-73
2022/04/11 15:09:36;;;;;;;;;;;;;;;15.99;42.89;98640.13;4807078;29;19960;-73
2022/04/11 15:12:04;;;;;;;;;;;;;;;15.90;41.85;98636.25;4812826;29;19970;-73
2022/04/11 15:14:31;;;;;;;;;;;;;;;15.86;41.30;98638.34;4811624;29;20450;-73
2022/04/11 15:16:58;;;;;;;;;;;;;;;15.94;42.35;98640.63;4807066;29;19977;-73
2022/04/11 15:19:26;;;;;;;;;;;;;;;15.94;43.22;98640.63;4807744;29;19955;-73
2022/04/11 15:21:54;;;;;;;;;;;;;;;15.99;41.62;98639.34;4807795;29;19953;-73
2022/04/11 15:24:21;;;;;;;;;;;;;;;15.91;42.51;98629.41;4807802;29;19954;-73
2022/04/11 15:26:49;;;;;;;;;;;;;;;15.91;41.11;98630.19;4807317;29;19971;-73
2022/04/11 15:29:16;;;;;;;;;;;;;;;15.77;41.45;98624.78;4807457;29;20627;-73
2022/04/11 15:31:43;;;;;;;;;;;;;;;15.87;41.10;98631.47;4814740;29;19949;-72
2022/04/11 15:34:10;;;;;;;;;;;;;;;15.94;40.94;98628.56;4807667;29;19959;-73
2022/04/11 15:36:39;;;;;;;;;;;;;;;15.84;40.61;98635.13;4817339;29;20238;-72
2022/04/11 15:39:07;;;;;;;;;;;;;;;15.81;42.28;98627.53;4819790;29;19956;-73
2022/04/11 15:41:36;;;;;;;;;;;;;;;15.75;41.83;98628.00;4813725;29;19957;-72
2022/04/11 15:44:04;;;;;;;;;;;;;;;15.73;40.63;98626.81;4818776;29;19952;-73
2022/04/11 15:46:31;;;;;;;;;;;;;;;15.80;41.82;98629.53;4816070;29;20472;-72
2022/04/11 15:49:00;;;;;;;;;;;;;;;15.82;42.68;98629.91;4814599;29;19965;-71
2022/04/11 15:51:27;;;;;;;;;;;;;;;15.75;42.86;98630.00;4816296;29;19964;-73
2022/04/11 15:53:55;;;;;;;;;;;;;;;15.79;42.19;98625.13;4814933;29;19964;-76
2022/04/11 15:56:22;;;;;;;;;;;;;;;15.81;42.03;98624.69;4814067;29;20166;-71
2022/04/11 15:58:49;;;;;;;;;;;;;;;15.68;41.54;98635.75;4818735;29;19954;-72
2022/04/11 16:01:16;;;;;;;;;;;;;;;15.86;41.35;98624.22;4817490;29;20264;-72
2022/04/11 16:03:44;;;;;;;;;;;;;;;15.72;42.82;98633.69;4819555;29;19954;-72
2022/04/11 16:06:11;;;;;;;;;;;;;;;15.60;43.01;98637.09;4820230;29;19963;-72
2022/04/11 16:08:39;;;;;;;;;;;;;;;15.51;42.04;98634.78;4823378;29;19979;-72
2022/04/11 16:11:06;;;;;;;;;;;;;;;15.39;44.77;98634.50;4816456;29;20326;-72
2022/04/11 16:13:35;;;;;;;;;;;;;;;15.41;43.64;98643.31;4819666;29;19955;-71
2022/04/11 16:16:02;;;;;;;;;;;;;;;15.42;44.53;98636.47;4817806;29;20297;-70
2022/04/11 16:18:30;;;;;;;;;;;;;;;15.40;43.66;98633.28;4815218;29;19980;-70
2022/04/11 16:20:57;;;;;;;;;;;;;;;15.38;43.48;98630.09;4814423;29;19968;-70
2022/04/11 16:23:24;;;;;;;;;;;;;;;15.31;43.49;98641.47;4811789;29;19963;-70
2022/04/11 16:25:53;;;;;;;;;;;;;;;15.19;43.73;98623.06;4812772;29;19969;-70
2022/04/11 16:28:20;;;;;;;;;;;;;;;15.42;43.14;98625.22;4817431;29;19981;-71
2022/04/11 16:30:47;;;;;;;;;;;;;;;15.18;44.20;98631.97;4824747;29;19967;-71
2022/04/11 16:33:15;;;;;;;;;;;;;;;15.14;44.63;98629.97;4824205;29;19987;-71
2022/04/11 16:35:42;;;;;;;;;;;;;;;15.05;44.76;98629.69;4821237;29;20261;-71
2022/04/11 16:38:09;;;;;;;;;;;;;;;15.07;45.27;98630.06;4815292;29;20403;-70
2022/04/11 16:40:38;;;;;;;;;;;;;;;15.07;45.25;98632.06;4809608;29;19963;-70
2022/04/11 16:43:05;;;;;;;;;;;;;;;15.05;45.04;98631.69;4817160;29;19956;-70
2022/04/11 16:45:32;;;;;;;;;;;;;;;15.02;47.07;98629.72;4815996;29;19969;-70
2022/04/11 16:48:32;;;;;;;;;;;;;;;15.04;46.28;98633.72;4826462;29;20277;-70
2022/04/11 16:50:59;;;;;;;;;;;;;;;15.05;46.16;98628.88;4814808;29;19960;-70
2022/04/11 16:53:27;;;;;;;;;;;;;;;15.05;46.90;98631.69;4812074;29;19966;-70
2022/04/11 16:55:56;;;;;;;;;;;;;;;15.00;47.56;98626.53;4806603;29;19964;-70
2022/04/11 16:58:24;;;;;;;;;;;;;;;14.92;47.03;98627.81;4811596;29;19960;-69
2022/04/11 17:00:52;;;;;;;;;;;;;;;14.89;46.43;98629.44;4816665;29;19960;-69
2022/04/11 17:03:22;;;;;;;;;;;;;;;14.90;47.51;98627.44;4814715;29;19958;-70
2022/04/11 17:05:49;;;;;;;;;;;;;;;14.91;46.18;98629.84;4813510;29;20249;-70
2022/04/11 17:08:26;;;;;;;;;;;;;;;14.90;46.25;98636.69;4816294;29;19985;-70
2022/04/11 17:10:54;;;;;;;;;;;;;;;14.74;46.82;98636.47;4820206;29;20340;-70
2022/04/11 17:13:21;;;;;;;;;;;;;;;14.77;45.95;98644.06;4814333;29;19957;-70
2022/04/11 17:18:34;;;;;;;;;;;;;;;14.68;46.98;98637.31;4813155;29;19985;-70
2022/04/11 17:21:06;;;;;;;;;;;;;;;14.61;48.37;98645.81;4813845;29;19957;-70
2022/04/11 17:23:34;;;;;;;;;;;;;;;14.54;47.83;98643.09;4812468;29;19984;-70
2022/04/11 17:26:02;;;;;;;;;;;;;;;14.48;48.02;98637.09;4813157;29;19972;-70